Time;durP1;ratioP1;P1;durP2;ratioP2;P2;SDS_P1;SDS_P2;PMS_P1;PMS_P2;Temp;Humidity;BMP_temperature;BMP_pressure;BME280_temperature;BME280_humidity;BME280_pressure;Samples;Min_cycle;Max_cycle;Signal;HPM_P1;HPM_P2
2022/05/22 00:02:10;;;;;;;0.47;0.27;;;;;;;18.34;90.39;95083.13;5115304;28;20884;-59
2022/05/22 00:04:40;;;;;;;0.40;0.30;;;;;;;18.30;90.18;95081.44;5114666;28;20996;-59
2022/05/22 00:07:09;;;;;;;0.43;0.27;;;;;;;18.24;90.10;95078.13;5114642;28;20917;-59
2022/05/22 00:09:38;;;;;;;0.40;0.20;;;;;;;18.23;90.68;95079.25;5114582;28;21046;-59
2022/05/22 00:12:09;;;;;;;0.40;0.20;;;;;;;18.21;89.32;95073.44;5114603;28;20423;-59
2022/05/22 00:14:37;;;;;;;0.47;0.33;;;;;;;18.15;90.90;95084.66;5114580;28;20800;-59
2022/05/22 00:17:08;;;;;;;0.50;0.40;;;;;;;17.68;92.07;95022.22;5114314;28;20499;-59
2022/05/22 00:19:38;;;;;;;3.97;0.50;;;;;;;18.14;91.48;95086.53;5114426;28;20431;-59
2022/05/22 00:22:08;;;;;;;0.50;0.37;;;;;;;18.11;91.27;95076.47;5114380;28;20460;-59
2022/05/22 00:24:37;;;;;;;0.60;0.47;;;;;;;18.05;91.00;95069.72;5114222;28;20485;-59
2022/05/22 00:27:06;;;;;;;0.40;0.30;;;;;;;18.10;92.52;95074.09;5114270;28;20940;-59
2022/05/22 00:29:36;;;;;;;0.40;0.20;;;;;;;18.06;92.82;95073.19;5114167;28;21057;-60
2022/05/22 00:32:06;;;;;;;0.50;0.30;;;;;;;18.02;93.49;95069.56;5114400;28;20440;-60
2022/05/22 00:34:34;;;;;;;0.40;0.20;;;;;;;17.76;93.81;95040.16;5113905;28;20457;-60
2022/05/22 00:37:03;;;;;;;0.50;0.30;;;;;;;17.84;94.12;95051.94;5114072;28;20913;-59
2022/05/22 00:39:33;;;;;;;0.50;0.50;;;;;;;17.91;93.73;95065.69;5114461;28;20502;-59
2022/05/22 00:42:02;;;;;;;0.40;0.20;;;;;;;17.47;95.58;95014.06;5126038;28;20797;-59
2022/05/22 00:44:30;;;;;;;0.43;0.30;;;;;;;17.78;96.61;95057.50;5114539;28;20488;-59
2022/05/22 00:46:59;;;;;;;0.50;0.30;;;;;;;17.76;96.59;95064.28;5113973;28;20535;-59
2022/05/22 00:49:30;;;;;;;0.40;0.30;;;;;;;17.65;97.72;95053.13;5114180;28;20466;-60
2022/05/22 00:52:03;;;;;;;0.40;0.30;;;;;;;17.70;97.78;95054.84;5113732;28;21002;-60
2022/05/22 00:54:43;;;;;;;0.40;0.20;;;;;;;17.71;97.46;95054.53;5114106;28;20441;-60
2022/05/22 00:57:15;;;;;;;0.40;0.20;;;;;;;17.71;96.49;95054.53;5113623;28;20431;-60
2022/05/22 00:59:49;;;;;;;0.57;0.47;;;;;;;17.74;95.33;95051.22;5113488;28;20423;-60
2022/05/22 01:02:17;;;;;;;0.50;0.30;;;;;;;17.69;96.63;95054.06;5113820;28;20511;-59
2022/05/22 01:04:49;;;;;;;0.50;0.50;;;;;;;17.63;98.52;95060.69;5113152;28;20492;-59
2022/05/22 01:07:19;;;;;;;0.50;0.30;;;;;;;17.27;96.87;95020.09;5113347;28;20435;-59
2022/05/22 01:09:49;;;;;;;0.40;0.20;;;;;;;17.59;97.69;95045.56;5113586;28;20529;-59
2022/05/22 01:12:22;;;;;;;0.40;0.30;;;;;;;17.65;97.75;95049.66;5113507;28;20431;-59
2022/05/22 01:14:52;;;;;;;0.40;0.30;;;;;;;17.62;98.93;95059.13;5113092;28;20475;-59
2022/05/22 01:17:21;;;;;;;0.40;0.20;;;;;;;17.61;97.53;95054.88;5113189;28;20535;-59
2022/05/22 01:19:58;;;;;;;0.40;0.30;;;;;;;17.52;98.79;95058.66;5113528;28;20973;-59
2022/05/22 01:22:28;;;;;;;0.40;0.20;;;;;;;17.48;98.63;95047.75;5111760;28;20431;-59
2022/05/22 01:25:00;;;;;;;0.40;0.30;;;;;;;17.52;98.47;95045.25;5112818;28;20810;-59
2022/05/22 01:27:28;;;;;;;0.40;0.30;;;;;;;17.51;99.90;95046.34;5113259;28;20510;-59
2022/05/22 01:30:14;;;;;;;0.40;0.20;;;;;;;17.43;99.10;95031.84;5113175;28;20516;-59
2022/05/22 01:32:44;;;;;;;0.40;0.30;;;;;;;17.40;100.00;95045.13;5113202;28;20458;-59
2022/05/22 01:35:16;;;;;;;0.40;0.30;;;;;;;17.29;100.00;95039.31;5112810;28;20459;-59
2022/05/22 01:37:48;;;;;;;0.40;0.20;;;;;;;16.79;100.00;95046.25;5113303;28;20523;-59
2022/05/22 01:40:18;;;;;;;0.50;0.40;;;;;;;16.29;100.00;95043.19;5112779;28;20420;-59
2022/05/22 01:42:47;;;;;;;0.63;0.60;;;;;;;15.77;100.00;95020.81;5112631;28;21035;-59
2022/05/22 01:45:17;;;;;;;0.40;0.30;;;;;;;15.64;100.00;95048.41;5112706;28;20435;-59
2022/05/22 01:47:47;;;;;;;0.40;0.30;;;;;;;15.84;100.00;95047.88;5112853;28;20838;-59
2022/05/22 01:50:17;;;;;;;0.40;0.30;;;;;;;16.10;100.00;95027.38;5112461;28;20494;-59
2022/05/22 01:52:46;;;;;;;0.60;0.60;;;;;;;16.25;100.00;95016.25;5112796;28;20506;-59
2022/05/22 01:55:15;;;;;;;0.50;0.40;;;;;;;16.70;100.00;95048.91;5112764;28;20535;-59
2022/05/22 01:57:44;;;;;;;0.40;0.20;;;;;;;16.72;100.00;95048.63;5112518;28;20515;-59
2022/05/22 02:00:16;;;;;;;0.40;0.30;;;;;;;16.39;100.00;95005.44;5112672;28;20463;-59
2022/05/22 02:02:44;;;;;;;0.40;0.20;;;;;;;16.51;100.00;95037.72;5112233;28;20467;-58
2022/05/22 02:05:14;;;;;;;0.60;0.40;;;;;;;16.43;100.00;95033.91;5112360;28;20419;-58
2022/05/22 02:10:31;;;;;;;0.50;0.37;;;;;;;16.51;100.00;95025.13;5112313;28;20562;-58
2022/05/22 02:13:00;;;;;;;4.60;1.40;;;;;;;16.68;100.00;95035.06;5112240;28;20456;-58
2022/05/22 02:15:29;;;;;;;0.47;0.27;;;;;;;16.71;100.00;95017.59;5111857;28;20484;-58
2022/05/22 02:17:57;;;;;;;0.50;0.40;;;;;;;15.31;100.00;94809.47;5111739;28;20423;-58
2022/05/22 02:20:26;;;;;;;0.57;0.40;;;;;;;16.80;100.00;95011.13;5112383;28;20523;-58
2022/05/22 02:22:58;;;;;;;1.07;1.07;;;;;;;16.73;100.00;95007.38;5111987;28;20435;-59
2022/05/22 02:25:31;;;;;;;0.40;0.30;;;;;;;16.92;100.00;95002.50;5112038;28;20462;-58
2022/05/22 02:28:00;;;;;;;0.50;0.30;;;;;;;17.02;100.00;95004.84;5112167;28;20518;-58
2022/05/22 02:30:31;;;;;;;2.10;2.00;;;;;;;16.96;100.00;94977.44;5111953;28;21062;-58
2022/05/22 02:33:00;;;;;;;0.70;0.60;;;;;;;17.15;100.00;94998.53;5112095;28;20478;-58
2022/05/22 02:35:30;;;;;;;0.40;0.30;;;;;;;17.20;100.00;95001.03;5111943;28;20912;-59
2022/05/22 02:37:59;;;;;;;0.50;0.40;;;;;;;17.19;100.00;95001.34;5111832;28;20484;-58
2022/05/22 02:40:31;;;;;;;0.43;0.40;;;;;;;17.05;100.00;94980.13;5112007;28;20997;-58
2022/05/22 02:43:00;;;;;;;0.40;0.27;;;;;;;15.78;100.00;94795.28;5111923;28;20917;-59
2022/05/22 02:45:30;;;;;;;0.83;0.83;;;;;;;17.33;100.00;95007.31;5112241;28;20932;-59
2022/05/22 02:47:59;;;;;;;0.50;0.30;;;;;;;17.26;100.00;95012.34;5112251;28;20455;-60
2022/05/22 02:50:29;;;;;;;0.40;0.30;;;;;;;17.23;100.00;95013.78;5118796;28;20521;-59
2022/05/22 02:52:57;;;;;;;0.40;0.30;;;;;;;16.93;100.00;95010.19;5117079;28;20454;-59
2022/05/22 02:55:26;;;;;;;0.87;0.87;;;;;;;16.30;100.00;94911.81;5112193;28;20450;-59
2022/05/22 02:57:56;;;;;;;0.40;0.20;;;;;;;16.06;100.00;94836.66;5111818;28;20435;-59
2022/05/22 03:00:27;;;;;;;0.40;0.30;;;;;;;16.84;100.00;94957.78;5112051;28;20541;-59
2022/05/22 03:02:56;;;;;;;1.17;0.40;;;;;;;17.23;100.00;95018.38;5111758;28;20518;-59
2022/05/22 03:05:26;;;;;;;0.40;0.30;;;;;;;17.33;100.00;95002.72;5111049;28;20435;-58
2022/05/22 03:07:55;;;;;;;0.60;0.47;;;;;;;17.29;100.00;95012.53;5111652;28;20435;-58
2022/05/22 03:10:24;;;;;;;0.50;0.30;;;;;;;16.77;100.00;94976.22;5111437;28;20864;-58
2022/05/22 03:12:53;;;;;;;0.80;0.70;;;;;;;16.46;100.00;94989.72;5111624;28;20467;-57
2022/05/22 03:15:23;;;;;;;0.40;0.30;;;;;;;16.73;100.00;95005.47;5111795;28;20846;-57
2022/05/22 03:17:52;;;;;;;0.47;0.30;;;;;;;11.96;100.00;94256.00;5071027;28;20418;-57
2022/05/22 03:20:20;;;;;;;0.40;0.20;;;;;;;16.66;100.00;94982.97;5071107;28;20472;-57
2022/05/22 03:22:48;;;;;;;0.50;0.50;;;;;;;16.74;100.00;95012.41;5070911;28;20485;-57
2022/05/22 03:25:17;;;;;;;0.40;0.27;;;;;;;16.40;100.00;94974.91;5070870;28;20449;-58
2022/05/22 03:27:45;;;;;;;0.50;0.30;;;;;;;16.78;100.00;95009.88;5071363;28;20441;-58
2022/05/22 03:30:14;;;;;;;0.40;0.30;;;;;;;16.54;100.00;95012.25;5074684;28;20556;-58
2022/05/22 03:32:44;;;;;;;0.40;0.40;;;;;;;16.37;100.00;95010.28;5073663;28;20560;-57
2022/05/22 03:35:12;;;;;;;0.40;0.30;;;;;;;16.50;100.00;95010.16;5074450;28;20524;-57
2022/05/22 03:37:41;;;;;;;0.40;0.30;;;;;;;16.51;100.00;95013.63;5074476;28;20421;-57
2022/05/22 03:40:11;;;;;;;0.60;0.50;;;;;;;16.63;100.00;95005.00;5074437;28;20421;-57
2022/05/22 03:42:40;;;;;;;0.40;0.20;;;;;;;16.75;100.00;95011.31;5074613;28;20892;-58
2022/05/22 03:45:09;;;;;;;0.50;0.40;;;;;;;16.80;100.00;95013.81;5074252;28;20516;-57
2022/05/22 03:47:39;;;;;;;0.40;0.30;;;;;;;16.28;100.00;94939.97;5074342;28;20471;-57
2022/05/22 03:50:11;;;;;;;0.70;0.70;;;;;;;16.84;100.00;95008.63;5074576;28;20455;-57
2022/05/22 03:52:42;;;;;;;1.43;1.13;;;;;;;16.94;100.00;95016.34;5074107;28;20542;-57
2022/05/22 03:55:14;;;;;;;0.40;0.30;;;;;;;16.91;100.00;95022.31;5074306;28;20512;-57
2022/05/22 03:57:47;;;;;;;0.40;0.20;;;;;;;16.99;100.00;95008.16;5074414;28;20520;-58
2022/05/22 04:00:17;;;;;;;0.60;0.30;;;;;;;17.03;100.00;95007.19;5073628;28;20437;-58
2022/05/22 04:02:46;;;;;;;0.40;0.30;;;;;;;16.95;100.00;95012.56;5074121;28;20437;-57
2022/05/22 04:05:16;;;;;;;0.60;0.60;;;;;;;17.07;100.00;95026.09;5074113;28;20452;-58
2022/05/22 04:07:46;;;;;;;0.57;0.30;;;;;;;17.17;100.00;95028.47;5074522;28;20426;-58
2022/05/22 04:10:16;;;;;;;0.40;0.30;;;;;;;17.24;100.00;95031.44;5074012;28;20433;-58
2022/05/22 04:12:45;;;;;;;0.40;0.30;;;;;;;17.29;100.00;95036.63;5074074;28;20510;-59
2022/05/22 04:15:18;;;;;;;0.40;0.30;;;;;;;16.26;100.00;94910.88;5073906;28;20444;-58
2022/05/22 04:17:47;;;;;;;0.50;0.40;;;;;;;16.95;100.00;94999.94;5114115;28;20495;-59
2022/05/22 04:20:18;;;;;;;0.40;0.30;;;;;;;16.83;100.00;94961.53;5114279;28;21069;-59
2022/05/22 04:25:33;;;;;;;0.40;0.20;;;;;;;17.00;100.00;94999.03;5114562;28;20443;-59
2022/05/22 04:28:01;;;;;;;0.50;0.50;;;;;;;16.88;100.00;95018.38;5114345;28;20477;-59
2022/05/22 04:30:29;;;;;;;0.67;0.67;;;;;;;16.29;100.00;94934.28;5114257;28;20450;-59
2022/05/22 04:32:58;;;;;;;0.50;0.40;;;;;;;16.84;100.00;95030.84;5114482;28;20887;-59
2022/05/22 04:35:29;;;;;;;0.60;0.50;;;;;;;17.31;100.00;95030.94;5114571;28;20507;-59
2022/05/22 04:38:02;;;;;;;0.40;0.40;;;;;;;16.23;100.00;94863.38;5114483;28;20427;-59
2022/05/22 04:40:30;;;;;;;0.57;0.57;;;;;;;17.56;100.00;95027.44;5112338;28;20474;-59
2022/05/22 04:42:59;;;;;;;0.43;0.30;;;;;;;17.75;100.00;95039.38;5114737;28;20427;-60
2022/05/22 04:45:27;;;;;;;0.50;0.30;;;;;;;16.92;100.00;95024.69;5114323;28;20509;-60
2022/05/22 04:47:56;;;;;;;0.40;0.30;;;;;;;16.91;100.00;95055.25;5113998;28;20437;-60
2022/05/22 04:50:25;;;;;;;0.73;0.73;;;;;;;16.92;100.00;95008.63;5114061;28;20459;-59
2022/05/22 04:52:56;;;;;;;0.40;0.20;;;;;;;17.50;100.00;95039.44;5114106;28;21052;-59
2022/05/22 04:55:24;;;;;;;0.40;0.30;;;;;;;17.87;100.00;95056.69;5113668;28;20467;-59
2022/05/22 04:57:53;;;;;;;0.63;0.63;;;;;;;18.11;99.65;95056.91;5113903;28;20475;-59
2022/05/22 05:00:21;;;;;;;2.83;0.37;;;;;;;17.62;100.00;95069.84;5122358;28;20467;-58
2022/05/22 05:02:50;;;;;;;0.80;0.50;;;;;;;17.17;100.00;95023.09;5119216;28;20488;-59
2022/05/22 05:05:18;;;;;;;0.50;0.40;;;;;;;17.90;100.00;95053.38;5113857;28;20988;-59
2022/05/22 05:07:47;;;;;;;0.40;0.30;;;;;;;18.24;98.02;95053.22;5113868;28;20423;-59
2022/05/22 05:10:16;;;;;;;0.40;0.30;;;;;;;18.40;96.25;95040.81;5113450;28;20519;-58
2022/05/22 05:12:45;;;;;;;0.50;0.40;;;;;;;18.47;97.29;95038.44;5113444;28;20475;-58
2022/05/22 05:15:16;;;;;;;0.60;0.30;;;;;;;18.65;94.63;95028.38;5113436;28;20476;-58
2022/05/22 05:17:47;;;;;;;0.50;0.37;;;;;;;18.63;96.87;95030.59;5113211;28;20502;-58
2022/05/22 05:20:18;;;;;;;0.40;0.30;;;;;;;18.97;95.34;95030.34;5113524;28;20431;-58
2022/05/22 05:22:46;;;;;;;0.40;0.27;;;;;;;18.77;98.67;95039.19;5113376;28;20925;-58
2022/05/22 05:25:16;;;;;;;0.50;0.50;;;;;;;18.96;96.81;95024.19;5113622;28;20469;-58
2022/05/22 05:27:52;;;;;;;0.43;0.30;;;;;;;19.07;98.54;95032.63;5113637;28;20451;-58
2022/05/22 05:30:20;;;;;;;0.50;0.40;;;;;;;18.65;100.00;95042.59;5113237;28;20515;-57
2022/05/22 05:32:48;;;;;;;0.50;0.40;;;;;;;18.62;100.00;95040.53;5113317;28;20459;-58
2022/05/22 05:35:17;;;;;;;0.60;0.60;;;;;;;18.67;100.00;95039.59;5112683;28;20439;-57
2022/05/22 05:37:46;;;;;;;0.50;0.40;;;;;;;18.81;100.00;95038.22;5112903;28;20480;-57
2022/05/22 05:40:16;;;;;;;0.40;0.30;;;;;;;18.66;99.89;95022.69;5113478;28;20473;-57
2022/05/22 05:42:45;;;;;;;0.67;0.60;;;;;;;18.86;97.65;95042.59;5112838;28;20432;-57
2022/05/22 05:45:14;;;;;;;0.60;0.57;;;;;;;18.79;97.99;95036.97;5113064;28;20428;-58
2022/05/22 05:47:46;;;;;;;0.60;0.50;;;;;;;19.22;94.88;95044.66;5113217;28;20488;-58
2022/05/22 05:50:15;;;;;;;0.50;0.40;;;;;;;19.34;94.00;95042.81;5112702;28;20423;-58
2022/05/22 05:52:43;;;;;;;0.60;0.60;;;;;;;19.30;94.98;95041.13;5112545;28;21029;-57
2022/05/22 05:55:12;;;;;;;0.60;0.40;;;;;;;19.42;93.16;95025.06;5111562;28;20435;-57
2022/05/22 05:57:42;;;;;;;0.50;0.40;;;;;;;20.07;87.93;95040.31;5112514;28;20423;-57
2022/05/22 06:00:15;;;;;;;0.40;0.23;;;;;;;20.23;85.87;95031.28;5112524;28;20419;-57
2022/05/22 06:02:44;;;;;;;0.50;0.37;;;;;;;20.11;85.97;95038.53;5112433;28;20431;-57
2022/05/22 06:05:14;;;;;;;0.50;0.30;;;;;;;20.31;85.18;95034.19;5112416;28;20481;-58
2022/05/22 06:07:42;;;;;;;3.27;0.60;;;;;;;20.69;81.47;95030.00;5112542;28;20445;-57
2022/05/22 06:10:12;;;;;;;0.50;0.30;;;;;;;20.79;81.23;95021.47;5112629;28;20412;-58
2022/05/22 06:12:43;;;;;;;1.83;0.40;;;;;;;20.62;84.05;95015.50;5112622;28;20494;-57
2022/05/22 06:15:11;;;;;;;0.60;0.40;;;;;;;20.81;80.96;94994.97;5112357;28;20435;-58
2022/05/22 06:17:43;;;;;;;0.40;0.30;;;;;;;21.72;77.92;95014.00;5112211;28;21027;-58
2022/05/22 06:20:15;;;;;;;0.60;0.40;;;;;;;21.92;70.02;94972.53;5112643;28;20571;-57
2022/05/22 06:22:44;;;;;;;0.70;0.50;;;;;;;22.40;69.18;95014.53;5112575;28;20821;-57
2022/05/22 06:25:15;;;;;;;0.60;0.40;;;;;;;22.42;67.92;94993.38;5112039;28;20428;-56
2022/05/22 06:27:45;;;;;;;0.50;0.50;;;;;;;22.68;64.93;94975.47;5112105;28;20455;-55
2022/05/22 06:30:18;;;;;;;0.77;0.77;;;;;;;22.04;60.73;94954.31;5111527;28;20489;-56
2022/05/22 06:32:46;;;;;;;0.60;0.47;;;;;;;22.58;63.04;94989.50;5111827;28;20961;-55
2022/05/22 06:35:16;;;;;;;0.90;0.90;;;;;;;22.36;64.46;94963.16;5112167;28;20507;-55
2022/05/22 06:37:45;;;;;;;0.70;0.70;;;;;;;22.89;67.67;94990.56;5112164;28;20510;-55
2022/05/22 06:40:12;;;;;;;2.50;0.47;;;;;;;22.83;66.42;94975.75;5110779;28;20867;-55
2022/05/22 06:42:43;;;;;;;0.70;0.40;;;;;;;22.70;67.00;94981.31;5110112;28;20892;-55
2022/05/22 06:45:17;;;;;;;0.63;0.60;;;;;;;22.83;68.64;94986.56;5108342;28;20431;-55
2022/05/22 06:47:45;;;;;;;0.80;0.80;;;;;;;23.02;64.06;94983.91;5108025;28;20988;-54
2022/05/22 06:50:16;;;;;;;0.40;0.33;;;;;;;23.54;62.52;94976.03;5108239;28;20856;-55
2022/05/22 06:52:44;;;;;;;0.50;0.50;;;;;;;23.00;62.93;94948.31;5107905;28;20542;-55
2022/05/22 06:55:14;;;;;;;0.50;0.40;;;;;;;23.45;61.12;94940.34;5109003;28;20471;-55
2022/05/22 06:57:43;;;;;;;0.70;0.70;;;;;;;23.52;58.69;94975.63;5109194;28;20503;-55
2022/05/22 07:00:18;;;;;;;0.57;0.47;;;;;;;23.85;58.93;94970.41;5109628;28;20497;-55
2022/05/22 07:02:47;;;;;;;0.60;0.60;;;;;;;24.17;58.00;94962.03;5110687;28;20801;-55
2022/05/22 07:05:16;;;;;;;0.50;0.50;;;;;;;24.26;58.29;94966.03;5114284;28;20455;-54
2022/05/22 07:07:44;;;;;;;0.40;0.30;;;;;;;23.78;56.69;94964.09;5115578;28;20848;-55
2022/05/22 07:10:12;;;;;;;0.70;0.40;;;;;;;23.95;55.98;94956.28;5115629;28;20450;-55
2022/05/22 07:12:41;;;;;;;0.73;0.60;;;;;;;23.54;58.12;94951.69;5115719;28;20976;-55
2022/05/22 07:15:11;;;;;;;0.47;0.37;;;;;;;23.32;59.84;94941.59;5116122;28;20474;-55
2022/05/22 07:17:41;;;;;;;0.40;0.40;;;;;;;23.71;58.93;94951.22;5115319;28;20475;-56
2022/05/22 07:20:10;;;;;;;0.50;0.50;;;;;;;23.70;58.81;94900.16;5115379;28;21001;-55
2022/05/22 07:22:38;;;;;;;0.60;0.30;;;;;;;23.90;57.23;94942.25;5115414;28;20472;-55
2022/05/22 07:25:08;;;;;;;0.60;0.60;;;;;;;24.89;54.54;94949.16;5115934;28;20439;-56
2022/05/22 07:27:37;;;;;;;2.30;0.50;;;;;;;25.06;54.60;94954.78;5115615;28;20407;-58
2022/05/22 07:30:06;;;;;;;0.70;0.50;;;;;;;25.10;53.47;94954.81;5115222;28;20484;-58
2022/05/22 07:32:35;;;;;;;1.83;0.83;;;;;;;25.91;51.59;94942.09;5115402;28;20477;-58
2022/05/22 07:35:07;;;;;;;0.50;0.47;;;;;;;25.95;51.22;94942.13;5115062;28;20453;-58
2022/05/22 07:37:35;;;;;;;0.80;0.50;;;;;;;26.53;49.87;94932.09;5114974;27;20427;-58
2022/05/22 07:40:04;;;;;;;0.60;0.53;;;;;;;27.14;48.79;94928.53;5115342;28;20499;-59
2022/05/22 07:42:32;;;;;;;0.30;0.20;;;;;;;27.48;44.36;94890.91;5114843;28;20481;-59
2022/05/22 07:45:02;;;;;;;0.70;0.70;;;;;;;26.77;46.94;94930.69;5114866;28;20480;-58
2022/05/22 07:47:30;;;;;;;0.83;0.83;;;;;;;27.07;45.62;94929.25;5114500;28;20459;-58
2022/05/22 07:52:46;;;;;;;0.50;0.40;;;;;;;28.37;43.95;94873.38;5115366;28;20431;-58
2022/05/22 07:55:18;;;;;;;1.77;0.63;;;;;;;28.41;41.68;94851.59;5115148;28;20424;-58
2022/05/22 07:57:48;;;;;;;0.40;0.30;;;;;;;29.42;41.30;94909.66;5115447;28;20427;-58
2022/05/22 08:00:20;;;;;;;1.13;0.53;;;;;;;29.03;40.31;94893.44;5115168;28;20827;-58
2022/05/22 08:02:48;;;;;;;0.70;0.70;;;;;;;29.19;41.13;94895.72;5114752;28;20415;-58
2022/05/22 08:05:19;;;;;;;5.03;0.67;;;;;;;29.66;39.98;94894.28;5114574;28;20435;-58
2022/05/22 08:07:49;;;;;;;0.60;0.50;;;;;;;29.95;40.27;94898.41;5114664;28;21085;-57
2022/05/22 08:10:19;;;;;;;0.40;0.40;;;;;;;30.76;38.85;94894.91;5114630;28;20420;-57
2022/05/22 08:12:50;;;;;;;0.50;0.47;;;;;;;30.56;38.33;94897.44;5114580;28;20510;-57
2022/05/22 08:15:21;;;;;;;0.53;0.50;;;;;;;30.27;37.94;94878.97;5113280;28;20469;-57
2022/05/22 08:17:49;;;;;;;0.47;0.37;;;;;;;31.11;37.47;94874.53;5114424;28;20498;-57
2022/05/22 08:20:20;;;;;;;0.50;0.40;;;;;;;31.49;35.11;94880.69;5114908;28;20424;-57
2022/05/22 08:22:58;;;;;;;0.40;0.30;;;;;;;32.44;32.61;94874.44;5114230;28;20434;-56
2022/05/22 08:25:28;;;;;;;0.50;0.40;;;;;;;32.35;33.25;94882.47;5114342;28;20462;-57
2022/05/22 08:27:57;;;;;;;0.40;0.30;;;;;;;31.74;34.94;94870.16;5114503;28;20419;-56
2022/05/22 08:30:29;;;;;;;0.50;0.40;;;;;;;30.78;33.77;94863.19;5114156;28;20415;-56
2022/05/22 08:32:58;;;;;;;0.50;0.43;;;;;;;30.59;32.97;94868.50;5114498;28;20806;-56
2022/05/22 08:35:29;;;;;;;0.43;0.40;;;;;;;30.45;34.99;94863.97;5114062;28;20553;-56
2022/05/22 08:38:00;;;;;;;0.40;0.30;;;;;;;30.15;34.54;94864.63;5114341;28;20525;-57
2022/05/22 08:40:39;;;;;;;1.10;1.00;;;;;;;29.25;36.15;94858.66;5114455;28;20415;-56
2022/05/22 08:43:13;;;;;;;0.40;0.30;;;;;;;28.89;36.42;94858.81;5114042;28;20456;-57
2022/05/22 08:45:44;;;;;;;4.10;0.70;;;;;;;28.73;36.43;94849.53;5113876;28;20424;-57
2022/05/22 08:48:17;;;;;;;0.50;0.43;;;;;;;29.08;37.26;94857.56;5114144;28;20849;-57
2022/05/22 08:50:47;;;;;;;0.47;0.40;;;;;;;29.07;37.66;94850.53;5114108;28;20420;-58
2022/05/22 08:53:24;;;;;;;0.50;0.40;;;;;;;28.39;38.14;94772.16;5113717;28;20498;-57
2022/05/22 08:58:57;;;;;;;0.40;0.30;;;;;;;28.92;38.54;94843.59;5113463;28;20470;-56
2022/05/22 09:01:44;;;;;;;0.60;0.57;;;;;;;28.31;38.82;94836.78;5113471;28;20850;-56
2022/05/22 09:04:23;;;;;;;0.50;0.30;;;;;;;28.54;39.21;94828.94;5113669;28;20424;-56
2022/05/22 09:06:59;;;;;;;0.40;0.30;;;;;;;28.66;39.34;94836.72;5113554;28;20447;-56
2022/05/22 09:09:32;;;;;;;0.40;0.30;;;;;;;28.86;39.55;94839.75;5113731;28;20423;-57
2022/05/22 09:12:10;;;;;;;0.40;0.40;;;;;;;29.08;40.40;94835.72;5113400;28;20455;-57
2022/05/22 09:14:42;;;;;;;0.60;0.40;;;;;;;30.10;41.65;94834.22;5113620;28;20915;-56
2022/05/22 09:17:16;;;;;;;0.40;0.30;;;;;;;30.94;35.80;94826.28;5113071;28;20502;-56
2022/05/22 09:19:47;;;;;;;2.20;2.10;;;;;;;30.88;36.50;94823.19;5113341;28;20512;-56
2022/05/22 09:22:23;;;;;;;0.30;0.27;;;;;;;31.60;34.71;94818.31;5112664;28;20423;-56
2022/05/22 09:25:14;;;;;;;2.83;0.97;;;;;;;30.11;35.97;94833.03;5112712;28;20419;-56
2022/05/22 09:27:52;;;;;;;0.77;0.77;;;;;;;29.45;37.40;94832.38;5113118;28;20423;-56
2022/05/22 09:30:30;;;;;;;0.40;0.40;;;;;;;29.43;38.75;94821.09;5113431;28;20499;-56
2022/05/22 09:33:11;;;;;;;0.63;0.63;;;;;;;29.91;38.96;94821.91;5113357;28;20778;-56
2022/05/22 09:35:57;;;;;;;1.10;0.97;;;;;;;29.50;39.24;94824.53;5113281;28;20463;-56
2022/05/22 09:38:50;;;;;;;0.40;0.40;;;;;;;30.35;39.12;94803.91;5112887;28;20463;-56
2022/05/22 09:41:32;;;;;;;0.50;0.40;;;;;;;30.44;39.97;94801.44;5113138;28;20835;-55
2022/05/22 09:44:29;;;;;;;0.63;0.40;;;;;;;30.50;39.91;94802.56;5112866;28;20428;-56
2022/05/22 09:47:38;;;;;;;0.40;0.30;;;;;;;30.58;39.83;94802.09;5113158;28;20469;-56
2022/05/22 09:50:27;;;;;;;0.40;0.40;;;;;;;31.12;38.55;94793.97;5112737;28;20458;-55
2022/05/22 09:53:02;;;;;;;0.93;0.53;;;;;;;30.80;38.77;94786.94;5112581;28;20445;-57
2022/05/22 09:55:42;;;;;;;0.87;0.60;;;;;;;31.29;37.84;94793.72;5112422;28;20459;-56
2022/05/22 09:58:30;;;;;;;0.50;0.40;;;;;;;31.07;37.34;94786.22;5111927;28;20422;-56
2022/05/22 10:01:10;;;;;;;0.77;0.60;;;;;;;30.86;36.89;94795.47;5111874;28;20810;-56
2022/05/22 10:03:51;;;;;;;0.60;0.60;;;;;;;31.03;34.44;94783.53;5112131;28;20908;-56
2022/05/22 10:06:31;;;;;;;0.40;0.40;;;;;;;31.87;31.22;94780.66;5112490;28;21001;-56
2022/05/22 10:09:10;;;;;;;0.50;0.30;;;;;;;32.62;27.16;94778.88;5112536;28;20514;-56
2022/05/22 10:11:49;;;;;;;1.23;0.63;;;;;;;32.93;26.48;94779.41;5112719;28;20797;-56
2022/05/22 10:14:46;;;;;;;0.40;0.30;;;;;;;32.86;28.06;94770.56;5112324;28;20470;-56
2022/05/22 10:17:29;;;;;;;0.40;0.30;;;;;;;33.02;27.58;94778.81;5112104;28;21019;-56
2022/05/22 10:20:07;;;;;;;0.40;0.40;;;;;;;33.14;29.37;94765.22;5112652;28;20825;-56
2022/05/22 10:22:52;;;;;;;0.47;0.40;;;;;;;31.93;26.75;94766.03;5112284;28;20498;-56
2022/05/22 10:25:37;;;;;;;0.60;0.40;;;;;;;31.52;26.91;94762.09;5112230;28;20427;-56
2022/05/22 10:28:11;;;;;;;0.40;0.30;;;;;;;30.24;28.15;94760.25;5112180;28;20465;-57
2022/05/22 10:30:48;;;;;;;0.40;0.30;;;;;;;30.03;28.65;94755.78;5112055;28;20450;-56
2022/05/22 10:33:24;;;;;;;0.40;0.30;;;;;;;30.67;29.32;94752.31;5111801;28;20455;-56
2022/05/22 10:35:58;;;;;;;0.40;0.30;;;;;;;30.20;30.52;94759.53;5111411;28;20915;-56
2022/05/22 10:38:31;;;;;;;6.03;1.03;;;;;;;30.33;30.63;94759.78;5110926;28;20507;-56
2022/05/22 10:44:07;;;;;;;0.30;0.30;;;;;;;30.51;29.75;94760.38;5111622;28;20518;-58
2022/05/22 10:46:49;;;;;;;0.93;0.93;;;;;;;30.44;30.87;94754.97;5111877;28;20454;-56
2022/05/22 10:49:18;;;;;;;0.47;0.27;;;;;;;29.84;29.98;94763.81;5112039;28;20435;-57
2022/05/22 10:51:57;;;;;;;0.40;0.30;;;;;;;29.66;29.89;94755.75;5111817;28;20451;-57
2022/05/22 10:54:29;;;;;;;0.30;0.30;;;;;;;29.82;29.18;94758.75;5111868;28;20986;-58
2022/05/22 10:57:08;;;;;;;3.97;0.37;;;;;;;29.21;28.00;94756.91;5111892;28;20858;-56
2022/05/22 10:59:37;;;;;;;0.40;0.30;;;;;;;29.05;29.74;94715.66;5111792;28;20507;-56
2022/05/22 11:02:25;;;;;;;0.40;0.30;;;;;;;29.33;31.12;94761.88;5112166;28;20476;-55
2022/05/22 11:04:56;;;;;;;0.37;0.30;;;;;;;29.46;31.45;94757.50;5112114;28;20451;-56
2022/05/22 11:07:30;;;;;;;0.57;0.50;;;;;;;29.07;32.47;94767.91;5112076;28;20864;-56
2022/05/22 11:10:09;;;;;;;0.40;0.33;;;;;;;29.28;32.55;94751.41;5111683;28;20448;-56
2022/05/22 11:12:38;;;;;;;0.50;0.50;;;;;;;28.41;34.20;94710.59;5112014;28;20451;-56
2022/05/22 11:15:13;;;;;;;1.10;0.93;;;;;;;28.66;34.52;94752.19;5111577;28;20557;-56
2022/05/22 11:17:43;;;;;;;0.50;0.50;;;;;;;28.83;35.27;94740.38;5111542;28;20473;-56
2022/05/22 11:20:18;;;;;;;0.30;0.30;;;;;;;28.94;36.63;94757.44;5111656;28;20476;-56
2022/05/22 11:22:59;;;;;;;0.40;0.30;;;;;;;28.63;35.92;94772.06;5111941;28;20423;-56
2022/05/22 11:25:34;;;;;;;0.30;0.30;;;;;;;28.10;35.23;94776.91;5111124;28;20423;-55
2022/05/22 11:28:31;;;;;;;2.10;0.30;;;;;;;27.98;35.22;94777.31;5111015;28;20462;-55
2022/05/22 11:31:12;;;;;;;0.53;0.40;;;;;;;28.09;35.41;94792.47;5108428;28;20470;-55
2022/05/22 11:33:57;;;;;;;0.40;0.30;;;;;;;27.81;35.41;94767.19;5111621;28;20455;-55
2022/05/22 11:36:43;;;;;;;0.40;0.30;;;;;;;27.61;34.35;94788.63;5111600;28;20495;-55
2022/05/22 11:39:41;;;;;;;0.70;0.60;;;;;;;27.21;35.61;94797.94;5111401;28;21148;-55
2022/05/22 11:42:18;;;;;;;0.30;0.20;;;;;;;27.01;39.37;94794.81;5111617;28;20829;-55
2022/05/22 11:45:04;;;;;;;0.40;0.30;;;;;;;26.94;39.44;94810.31;5111391;28;20464;-55
2022/05/22 11:47:46;;;;;;;0.30;0.20;;;;;;;27.17;35.90;94808.03;5111589;28;20455;-55
2022/05/22 11:50:28;;;;;;;0.30;0.20;;;;;;;27.25;36.52;94801.41;5114082;28;20434;-55
2022/05/22 11:53:10;;;;;;;0.30;0.20;;;;;;;27.13;37.71;94787.41;5115188;28;20432;-55
2022/05/22 11:55:55;;;;;;;0.30;0.20;;;;;;;27.50;37.18;94794.06;5114971;28;20471;-55
2022/05/22 11:58:31;;;;;;;0.40;0.30;;;;;;;28.63;36.32;94804.00;5115239;28;20452;-55
2022/05/22 12:01:12;;;;;;;0.53;0.43;;;;;;;28.96;33.94;94800.72;5114937;28;20502;-56
2022/05/22 12:04:26;;;;;;;0.40;0.30;;;;;;;29.59;33.55;94794.06;5115125;28;20544;-57
2022/05/22 12:07:09;;;;;;;0.30;0.30;;;;;;;30.52;33.59;94779.09;5077545;28;20439;-57
2022/05/22 12:09:47;;;;;;;0.60;0.60;;;;;;;29.94;31.75;94766.44;5114693;28;20415;-57
2022/05/22 12:12:30;;;;;;;0.40;0.30;;;;;;;30.40;31.09;94765.19;5114729;28;20447;-56